Portada
METAR-TAF:

METAR-TAF

Aeropuertos :

Aeropuerto de Rabat-Salé

Rabat, Marruecos

latitud: 34-03N, longitud: 006-46W, altitud: 84 m

Observación

El informe se hizo hace 21 minutos, a las 17:00 UTC
Viento 7 kt del norte, variando entre noroeste y noreste
Temperatura 26°C
Humedad 45%
Presión 1014 hPa
Visibilidad: 7000 m

METAR: GMME 261700Z 01007KT 320V050 7000 NSC 26/13 Q1014 NOSIG

Hora: 18:21 (17:21 UTC)

Pronóstico

El informe se hizo hace 6 horas y 21 minutos, a las 11:00 UTC
Pronóstico válido del 26 a las 12 UTC al 27 a las 18 UTC
Viento 10 kt del noroeste
Visibilidad: 6000 m
Temporalmente
del 27 a las 00 UTC al 27 a las 06 UTC
Viento 2 kt con dirección variable
Nubes dispersas a una altura de 1400 ft

TAF: GMME 261100Z 2612/2718 32010KT 6000 NSC TEMPO 2700/2706 VRB02KT SCT014

Observaciones y pronósticos meteorológicos de más de 4000 aeropuertos (mensajes METAR y TAF).

Los puntos amarillos y rojos representan las estaciones disponibles.

Ponga el ratón en el punto deseado para ver el nombre de la estación.

Haga clic para ver las observaciones y los pronósticos meteorológicos.

Para cambiar el mapa : haga clic en los botones verdes con una cruz de color negro para hacer un zoom, en el botón verde con un guión para alejar o en las flechas verdes para mapas adyacentes.


METAR-TAF: